Weather observations for the past three days for
Nuiqsut, Nuiqsut Airport
Imperial (Metric)
Date Time (akdt) Wind (mph) Vis. (mi.) Weather Sky Cond. Temperature (ºF) Relative Humidity Wind Chill (°F) Heat Index (°F) Pressure Precipitation (in)
Air Dwpt 6 hour altimeter (in) sea level (mb) 1 hr 3 hr 6 hr
Max. Min.
09 09:53 NE 17 7.00 Overcast OVC008 19.9 14 19.9 15.1 78% 6 30.05 1017.8
09 08:53 NE 14 10.00 Overcast SCT010 BKN028 OVC035 19 12.9 77% 6 30.06 1018.1
09 07:53 NE 9 10.00 Overcast BKN007 OVC033 18 14 84% 8 30.07 1018.3
09 05:53 N 8 7.00 Unknown Precip OVC019 16 10.9 80% 6 30.09 1018.8
09 04:53 NE 10 5.00 Light Snow OVC018 16 10 77% 5 30.1 1019.4
09 03:53 NE 12 4.00 Light Snow OVC018 15.1 10 19.9 9 80% 3 30.1 1019.4
09 02:53 NE 10 10.00 Unknown Precip OVC017 14 9 80% 2 30.11 1019.6
09 01:53 NE 8 1.00 Unknown Precip SCT009 BKN013 OVC029 10 5 80% -1 30.12 1020.0
09 00:53 N 6 10.00 Unknown Precip FEW007 10 5 80% 1 30.13 1020.2
08 23:53 N 9 2.00 Light Snow Fog/Mist BKN006 14 10 84% 3 30.13 1020.4
08 22:53 N 10 10.00 Overcast OVC006 18 12.9 81% 7 30.14 1020.5
08 21:53 NE 12 10.00 Overcast OVC009 19.9 14 21.9 19.9 78% 9 30.14 1020.5
08 20:53 NE 9 6.00 Unknown Precip OVC009 19.9 14 78% 10 30.14 1020.8
08 19:53 NE 10 9.00 Unknown Precip OVC010 21 14 74% 11 30.15 1021.0
08 18:53 NE 10 7.00 Unknown Precip BKN010 OVC028 21 14 74% 11 30.15 1021.2
08 17:53 NE 10 10.00 Overcast BKN010 OVC024 21 14 74% 11 30.16 1021.3
08 16:53 NE 9 10.00 Unknown Precip FEW009 OVC023 21 14 74% 11 30.17 1021.6
08 15:53 NE 10 10.00 Unknown Precip SCT010 OVC025 21.9 15.1 24.1 21.9 75% 12 30.17 1021.7
08 14:53 NE 8 10.00 Unknown Precip FEW009 SCT028 23 15.1 72% 15 30.18 1022.0
08 13:53 N 8 10.00 Unknown Precip BKN008 23 16 74% 15 30.19 1022.3
08 12:53 N 7 10.00 Unknown Precip OVC012 24.1 17.1 75% 17 30.19 1022.5
08 11:53 NE 7 10.00 Unknown Precip OVC010 21.9 16 78% 14 30.2 1022.7
08 10:53 SE 3 10.00 Overcast OVC008 21.9 17.1 82% 30.2 1022.8
08 09:53 S 5 8.00 Unknown Precip OVC008 21.9 18 23 19.9 85% 16 30.21 1023.0
08 08:53 Calm 10.00 Overcast BKN006 OVC010 21.9 18 85% 30.22 1023.3
08 07:53 W 8 9.00 Overcast OVC003 21 17.1 85% 12 30.22 1023.4
08 06:53 SW 8 4.00 Fog/Mist SCT004 OVC008 19.9 16 85% 11 30.23 1023.6
08 05:53 SW 8 2.50 Fog/Mist OVC004 19.9 16 85% 11 30.24 1023.9
08 04:53 SW 7 1.75 Fog/Mist OVC003 19.9 16 85% 12 30.25 1024.3
08 03:53 SW 6 2.50 Fog/Mist OVC004 19.9 17.1 21.9 19.9 89% 13 30.25 1024.5
08 01:53 W 5 6.00 Fog/Mist OVC005 19.9 17.1 89% 14 30.26 1024.8
08 00:53 S 8 7.00 Overcast OVC011 21 17.1 85% 12 30.26 1024.7
07 23:53 S 6 10.00 Overcast OVC011 21 17.1 85% 14 30.26 1024.8
07 22:53 SW 7 10.00 Overcast OVC010 21.9 17.1 82% 14 30.27 1025.1
07 21:53 S 5 10.00 Overcast OVC009 21.9 16 23 21 78% 16 30.27 1025.0
07 20:53 Calm 10.00 Overcast OVC010 21.9 17.1 82% 30.27 1025.1
07 19:53 SW 3 10.00 Overcast OVC010 21.9 17.1 82% 30.28 1025.4
07 18:53 N 5 10.00 Overcast OVC009 23 16 74% 18 30.28 1025.5
07 17:53 W 6 10.00 Overcast OVC009 21.9 16 78% 15 30.28 1025.4
07 16:53 W 7 10.00 Unknown Precip OVC010 21 16 81% 13 30.28 1025.5
07 15:53 W 5 10.00 Overcast OVC010 21 16 23 19.9 81% 15 30.28 1025.4
07 14:53 W 7 10.00 Unknown Precip OVC010 21 16 81% 13 30.28 1025.4
07 13:53 W 10 10.00 Unknown Precip OVC009 21.9 16 78% 12 30.27 1025.1
07 12:53 W 8 10.00 Unknown Precip OVC008 21.9 17.1 82% 13 30.26 1024.7
07 11:53 W 10 10.00 Overcast OVC008 21.9 17.1 82% 12 30.25 1024.5
07 10:53 W 9 10.00 Overcast OVC008 21 16 81% 11 30.25 1024.3
07 09:53 W 8 10.00 Overcast OVC008 21.9 16 21.9 21 78% 13 30.24 1024.0
07 08:53 W 7 10.00 Overcast OVC008 21 16 81% 13 30.22 1023.5
07 07:53 W 8 10.00 Overcast OVC009 21.9 16 78% 13 30.21 1023.1
07 06:53 NW 8 10.00 Overcast OVC008 21 16 81% 12 30.2 1022.6
07 05:53 W 7 10.00 Overcast OVC009 21.9 16 78% 14 30.18 1022.2
07 04:53 W 9 10.00 Overcast OVC012 21.9 16 78% 13 30.18 1021.9
07 03:53 NW 6 10.00 Overcast OVC014 21.9 16 25 21.9 78% 15 30.16 1021.4
07 02:53 NW 9 10.00 Overcast OVC016 23 17.1 78% 14 30.14 1020.8
07 01:53 NW 7 10.00 Overcast OVC015 24.1 18 77% 17 30.13 1020.3
07 00:53 SW 6 10.00 Overcast OVC017 24.1 19.9 84% 18 30.11 1019.5
06 23:53 SW 8 10.00 Overcast OVC016 25 19.9 81% 17 30.09 1018.9
06 22:53 SW 8 10.00 Overcast OVC016 25 19.9 81% 17 30.07 1018.5
06 21:53 SW 10 10.00 Overcast OVC017 25 19.9 28 25 81% 16 30.06 1018.0
06 20:53 SW 13 10.00 Overcast OVC015 26.1 19.9 78% 16 30.05 1017.6
06 19:53 SW 12 10.00 Overcast OVC015 26.1 19 75% 16 30.04 1017.2
06 18:53 SW 14 10.00 Overcast OVC015 27 19 72% 16 30.02 1016.6
06 17:53 SW 15 10.00 Overcast OVC013 27 19.9 75% 16 30 1016.0
06 16:53 SW 15 10.00 Overcast OVC014 27 19.9 75% 16 29.99 1015.5
06 15:53 W 16 10.00 Overcast OVC014 28 21 28.9 24.1 75% 17 29.97 1014.9
06 14:53 SW 16 10.00 Overcast OVC014 28 19.9 72% 17 29.95 1014.4
06 13:53 W 17 10.00 Mostly Cloudy BKN013 28.9 21.9 75% 18 29.94 1013.7
06 12:53 W 16 10.00 Mostly Cloudy BKN013 27 21 78% 16 29.92 1013.2
06 11:53 W 16 10.00 Overcast OVC011 27 21 78% 16 29.9 1012.7
Date Time (akdt) Wind (mph) Vis. (mi.) Weather Sky Cond. Air Dwpt Max. Min. Relative Humidity Wind Chill (°F) Heat Index (°F) altimeter (in) sea level (mb) 1 hr 3 hr 6 hr
6 hour
Temperature (ºF) Pressure Precipitation (in)